sensor_id;sensor_type;location;lat;lon;timestamp;P1;durP1;ratioP1;P2;durP2;ratioP2
66212;SDS011;53015;50.046;8.238;2023-02-28T00:01:33;3.08;;;1.00;;
66212;SDS011;53015;50.046;8.238;2023-02-28T00:03:59;1.60;;;0.95;;
66212;SDS011;53015;50.046;8.238;2023-02-28T00:06:25;1.20;;;1.10;;
66212;SDS011;53015;50.046;8.238;2023-02-28T00:08:50;1.92;;;1.17;;
66212;SDS011;53015;50.046;8.238;2023-02-28T00:11:16;2.47;;;1.17;;
66212;SDS011;53015;50.046;8.238;2023-02-28T00:13:43;1.75;;;1.00;;
66212;SDS011;53015;50.046;8.238;2023-02-28T00:16:10;2.97;;;1.02;;
66212;SDS011;53015;50.046;8.238;2023-02-28T00:18:39;2.47;;;1.30;;
66212;SDS011;53015;50.046;8.238;2023-02-28T00:21:05;2.33;;;1.60;;
66212;SDS011;53015;50.046;8.238;2023-02-28T00:23:31;1.35;;;1.02;;
66212;SDS011;53015;50.046;8.238;2023-02-28T00:25:57;2.47;;;1.52;;
66212;SDS011;53015;50.046;8.238;2023-02-28T00:28:23;1.98;;;1.20;;
66212;SDS011;53015;50.046;8.238;2023-02-28T00:30:49;1.90;;;1.30;;
66212;SDS011;53015;50.046;8.238;2023-02-28T00:33:14;2.13;;;1.15;;
66212;SDS011;53015;50.046;8.238;2023-02-28T00:35:41;2.63;;;1.02;;
66212;SDS011;53015;50.046;8.238;2023-02-28T00:38:06;1.70;;;1.30;;
66212;SDS011;53015;50.046;8.238;2023-02-28T00:40:32;2.35;;;1.60;;
66212;SDS011;53015;50.046;8.238;2023-02-28T00:42:58;4.93;;;1.35;;
66212;SDS011;53015;50.046;8.238;2023-02-28T00:45:23;5.75;;;1.23;;
66212;SDS011;53015;50.046;8.238;2023-02-28T00:47:49;2.90;;;1.40;;
66212;SDS011;53015;50.046;8.238;2023-02-28T00:50:15;2.08;;;1.05;;
66212;SDS011;53015;50.046;8.238;2023-02-28T00:52:42;1.40;;;1.17;;
66212;SDS011;53015;50.046;8.238;2023-02-28T00:55:08;4.53;;;1.45;;
66212;SDS011;53015;50.046;8.238;2023-02-28T00:57:34;2.22;;;1.40;;
66212;SDS011;53015;50.046;8.238;2023-02-28T00:59:59;3.80;;;1.55;;
66212;SDS011;53015;50.046;8.238;2023-02-28T01:02:25;1.13;;;1.05;;
66212;SDS011;53015;50.046;8.238;2023-02-28T01:04:51;3.88;;;1.20;;
66212;SDS011;53015;50.046;8.238;2023-02-28T01:07:17;3.95;;;1.27;;
66212;SDS011;53015;50.046;8.238;2023-02-28T01:09:43;3.30;;;1.50;;
66212;SDS011;53015;50.046;8.238;2023-02-28T01:12:09;3.22;;;1.63;;
66212;SDS011;53015;50.046;8.238;2023-02-28T01:14:34;1.50;;;1.33;;
66212;SDS011;53015;50.046;8.238;2023-02-28T01:17:00;1.45;;;1.23;;
66212;SDS011;53015;50.046;8.238;2023-02-28T01:19:26;2.72;;;1.23;;
66212;SDS011;53015;50.046;8.238;2023-02-28T01:21:52;2.33;;;1.42;;
66212;SDS011;53015;50.046;8.238;2023-02-28T01:24:19;2.00;;;1.40;;
66212;SDS011;53015;50.046;8.238;2023-02-28T01:26:46;2.40;;;1.70;;
66212;SDS011;53015;50.046;8.238;2023-02-28T01:29:11;3.30;;;1.58;;
66212;SDS011;53015;50.046;8.238;2023-02-28T01:31:37;1.40;;;1.30;;
66212;SDS011;53015;50.046;8.238;2023-02-28T01:34:03;2.67;;;1.58;;
66212;SDS011;53015;50.046;8.238;2023-02-28T01:36:29;3.75;;;1.50;;
66212;SDS011;53015;50.046;8.238;2023-02-28T01:38:55;3.53;;;1.77;;
66212;SDS011;53015;50.046;8.238;2023-02-28T01:41:22;2.85;;;2.10;;
66212;SDS011;53015;50.046;8.238;2023-02-28T01:43:57;2.45;;;1.63;;
66212;SDS011;53015;50.046;8.238;2023-02-28T01:46:25;2.92;;;1.70;;
66212;SDS011;53015;50.046;8.238;2023-02-28T01:48:51;2.20;;;1.60;;
66212;SDS011;53015;50.046;8.238;2023-02-28T01:51:22;2.58;;;1.80;;
66212;SDS011;53015;50.046;8.238;2023-02-28T01:53:54;2.28;;;1.70;;
66212;SDS011;53015;50.046;8.238;2023-02-28T01:56:23;3.40;;;1.77;;
66212;SDS011;53015;50.046;8.238;2023-02-28T01:58:51;2.60;;;1.95;;
66212;SDS011;53015;50.046;8.238;2023-02-28T02:01:18;2.95;;;1.50;;
66212;SDS011;53015;50.046;8.238;2023-02-28T02:03:44;2.28;;;1.83;;
66212;SDS011;53015;50.046;8.238;2023-02-28T02:06:10;3.15;;;1.73;;
66212;SDS011;53015;50.046;8.238;2023-02-28T02:08:36;1.73;;;1.45;;
66212;SDS011;53015;50.046;8.238;2023-02-28T02:11:02;2.65;;;1.85;;
66212;SDS011;53015;50.046;8.238;2023-02-28T02:13:38;2.33;;;1.85;;
66212;SDS011;53015;50.046;8.238;2023-02-28T02:16:15;1.90;;;1.58;;
66212;SDS011;53015;50.046;8.238;2023-02-28T02:18:52;3.38;;;1.60;;
66212;SDS011;53015;50.046;8.238;2023-02-28T02:21:40;2.17;;;1.70;;
66212;SDS011;53015;50.046;8.238;2023-02-28T02:27:57;3.22;;;1.80;;
66212;SDS011;53015;50.046;8.238;2023-02-28T02:30:44;2.88;;;1.52;;
66212;SDS011;53015;50.046;8.238;2023-02-28T02:36:24;3.20;;;1.90;;
66212;SDS011;53015;50.046;8.238;2023-02-28T02:38:56;3.90;;;2.17;;
66212;SDS011;53015;50.046;8.238;2023-02-28T02:41:31;3.22;;;1.75;;
66212;SDS011;53015;50.046;8.238;2023-02-28T02:44:02;5.03;;;2.40;;
66212;SDS011;53015;50.046;8.238;2023-02-28T02:46:32;2.17;;;1.70;;
66212;SDS011;53015;50.046;8.238;2023-02-28T02:49:00;1.95;;;1.60;;
66212;SDS011;53015;50.046;8.238;2023-02-28T02:51:30;2.00;;;1.65;;
66212;SDS011;53015;50.046;8.238;2023-02-28T02:54:00;1.85;;;1.60;;
66212;SDS011;53015;50.046;8.238;2023-02-28T02:56:29;3.08;;;1.58;;
66212;SDS011;53015;50.046;8.238;2023-02-28T02:58:59;2.63;;;1.42;;
66212;SDS011;53015;50.046;8.238;2023-02-28T03:01:27;4.03;;;1.77;;
66212;SDS011;53015;50.046;8.238;2023-02-28T03:03:56;5.20;;;1.52;;
66212;SDS011;53015;50.046;8.238;2023-02-28T03:06:25;1.83;;;1.55;;
66212;SDS011;53015;50.046;8.238;2023-02-28T03:08:50;1.67;;;1.48;;
66212;SDS011;53015;50.046;8.238;2023-02-28T03:11:16;1.90;;;1.60;;
66212;SDS011;53015;50.046;8.238;2023-02-28T03:13:44;3.10;;;1.45;;
66212;SDS011;53015;50.046;8.238;2023-02-28T03:19:22;2.03;;;1.50;;
66212;SDS011;53015;50.046;8.238;2023-02-28T03:21:59;1.90;;;1.35;;
66212;SDS011;53015;50.046;8.238;2023-02-28T03:24:39;1.95;;;1.33;;
66212;SDS011;53015;50.046;8.238;2023-02-28T03:27:14;1.75;;;1.52;;
66212;SDS011;53015;50.046;8.238;2023-02-28T03:29:45;2.50;;;1.40;;
66212;SDS011;53015;50.046;8.238;2023-02-28T03:32:16;2.50;;;1.35;;
66212;SDS011;53015;50.046;8.238;2023-02-28T03:34:49;2.75;;;1.45;;
66212;SDS011;53015;50.046;8.238;2023-02-28T03:37:20;2.00;;;1.27;;
66212;SDS011;53015;50.046;8.238;2023-02-28T03:39:49;1.63;;;1.35;;
66212;SDS011;53015;50.046;8.238;2023-02-28T03:42:19;2.15;;;1.27;;
66212;SDS011;53015;50.046;8.238;2023-02-28T03:44:48;1.60;;;1.50;;
66212;SDS011;53015;50.046;8.238;2023-02-28T03:47:17;1.95;;;1.30;;
66212;SDS011;53015;50.046;8.238;2023-02-28T03:49:48;2.15;;;1.30;;
66212;SDS011;53015;50.046;8.238;2023-02-28T03:52:18;2.13;;;1.48;;
66212;SDS011;53015;50.046;8.238;2023-02-28T03:54:49;2.40;;;1.50;;
66212;SDS011;53015;50.046;8.238;2023-02-28T03:57:18;1.30;;;1.17;;
66212;SDS011;53015;50.046;8.238;2023-02-28T03:59:49;3.17;;;1.55;;
66212;SDS011;53015;50.046;8.238;2023-02-28T04:02:20;1.90;;;1.30;;
66212;SDS011;53015;50.046;8.238;2023-02-28T04:04:45;1.77;;;1.38;;
66212;SDS011;53015;50.046;8.238;2023-02-28T04:07:11;2.97;;;1.50;;
66212;SDS011;53015;50.046;8.238;2023-02-28T04:09:37;1.77;;;1.25;;
66212;SDS011;53015;50.046;8.238;2023-02-28T04:12:03;1.63;;;1.50;;
66212;SDS011;53015;50.046;8.238;2023-02-28T04:14:29;2.00;;;1.50;;
66212;SDS011;53015;50.046;8.238;2023-02-28T04:16:55;1.83;;;1.17;;
66212;SDS011;53015;50.046;8.238;2023-02-28T04:19:20;2.72;;;1.50;;
66212;SDS011;53015;50.046;8.238;2023-02-28T04:21:46;2.22;;;1.30;;
66212;SDS011;53015;50.046;8.238;2023-02-28T04:24:13;1.48;;;1.35;;
66212;SDS011;53015;50.046;8.238;2023-02-28T04:26:41;1.85;;;1.35;;
66212;SDS011;53015;50.046;8.238;2023-02-28T04:29:08;1.35;;;1.20;;
66212;SDS011;53015;50.046;8.238;2023-02-28T04:31:34;1.95;;;1.38;;
66212;SDS011;53015;50.046;8.238;2023-02-28T04:33:59;3.05;;;1.35;;
66212;SDS011;53015;50.046;8.238;2023-02-28T04:36:25;2.05;;;1.33;;
66212;SDS011;53015;50.046;8.238;2023-02-28T04:38:51;1.63;;;1.15;;
66212;SDS011;53015;50.046;8.238;2023-02-28T04:41:17;3.00;;;1.45;;
66212;SDS011;53015;50.046;8.238;2023-02-28T04:43:43;3.08;;;1.25;;
66212;SDS011;53015;50.046;8.238;2023-02-28T04:46:09;1.55;;;1.17;;
66212;SDS011;53015;50.046;8.238;2023-02-28T04:48:35;3.38;;;1.60;;
66212;SDS011;53015;50.046;8.238;2023-02-28T04:51:03;2.78;;;1.40;;
66212;SDS011;53015;50.046;8.238;2023-02-28T04:53:30;1.30;;;1.20;;
66212;SDS011;53015;50.046;8.238;2023-02-28T04:55:55;2.38;;;1.48;;
66212;SDS011;53015;50.046;8.238;2023-02-28T04:58:21;1.55;;;1.20;;
66212;SDS011;53015;50.046;8.238;2023-02-28T05:00:47;1.95;;;1.17;;
66212;SDS011;53015;50.046;8.238;2023-02-28T05:03:13;3.00;;;1.40;;
66212;SDS011;53015;50.046;8.238;2023-02-28T05:05:38;6.40;;;1.38;;
66212;SDS011;53015;50.046;8.238;2023-02-28T05:08:04;3.40;;;1.50;;
66212;SDS011;53015;50.046;8.238;2023-02-28T05:10:29;2.10;;;1.20;;
66212;SDS011;53015;50.046;8.238;2023-02-28T05:12:55;2.63;;;1.50;;
66212;SDS011;53015;50.046;8.238;2023-02-28T05:15:20;2.75;;;1.05;;
66212;SDS011;53015;50.046;8.238;2023-02-28T05:17:47;2.78;;;1.42;;
66212;SDS011;53015;50.046;8.238;2023-02-28T05:20:12;1.75;;;1.17;;
66212;SDS011;53015;50.046;8.238;2023-02-28T05:22:38;2.53;;;1.27;;
66212;SDS011;53015;50.046;8.238;2023-02-28T05:25:04;3.40;;;1.25;;
66212;SDS011;53015;50.046;8.238;2023-02-28T05:27:30;1.55;;;1.30;;
66212;SDS011;53015;50.046;8.238;2023-02-28T05:29:55;1.92;;;1.15;;
66212;SDS011;53015;50.046;8.238;2023-02-28T05:32:21;3.95;;;1.15;;
66212;SDS011;53015;50.046;8.238;2023-02-28T05:34:48;1.85;;;1.02;;
66212;SDS011;53015;50.046;8.238;2023-02-28T05:37:14;2.05;;;1.30;;
66212;SDS011;53015;50.046;8.238;2023-02-28T05:39:40;2.10;;;1.50;;
66212;SDS011;53015;50.046;8.238;2023-02-28T05:42:05;1.90;;;1.40;;
66212;SDS011;53015;50.046;8.238;2023-02-28T05:44:31;1.83;;;1.13;;
66212;SDS011;53015;50.046;8.238;2023-02-28T05:46:56;2.17;;;1.30;;
66212;SDS011;53015;50.046;8.238;2023-02-28T05:49:22;1.83;;;1.13;;
66212;SDS011;53015;50.046;8.238;2023-02-28T05:51:48;2.50;;;1.30;;
66212;SDS011;53015;50.046;8.238;2023-02-28T05:54:13;2.70;;;1.25;;
66212;SDS011;53015;50.046;8.238;2023-02-28T05:56:39;2.13;;;1.20;;
66212;SDS011;53015;50.046;8.238;2023-02-28T05:59:05;1.65;;;1.10;;
66212;SDS011;53015;50.046;8.238;2023-02-28T06:01:32;2.17;;;1.10;;
66212;SDS011;53015;50.046;8.238;2023-02-28T06:03:59;1.98;;;1.25;;
66212;SDS011;53015;50.046;8.238;2023-02-28T06:06:24;2.60;;;1.50;;
66212;SDS011;53015;50.046;8.238;2023-02-28T06:08:51;1.30;;;1.00;;
66212;SDS011;53015;50.046;8.238;2023-02-28T06:11:16;2.72;;;1.30;;
66212;SDS011;53015;50.046;8.238;2023-02-28T06:13:42;2.05;;;1.17;;
66212;SDS011;53015;50.046;8.238;2023-02-28T06:16:08;2.50;;;1.25;;
66212;SDS011;53015;50.046;8.238;2023-02-28T06:18:35;2.30;;;1.50;;
66212;SDS011;53015;50.046;8.238;2023-02-28T06:21:00;2.38;;;1.33;;
66212;SDS011;53015;50.046;8.238;2023-02-28T06:23:26;1.88;;;1.20;;
66212;SDS011;53015;50.046;8.238;2023-02-28T06:25:52;1.30;;;1.05;;
66212;SDS011;53015;50.046;8.238;2023-02-28T06:28:17;1.33;;;1.20;;
66212;SDS011;53015;50.046;8.238;2023-02-28T06:30:43;2.42;;;1.20;;
66212;SDS011;53015;50.046;8.238;2023-02-28T06:33:09;1.50;;;1.10;;
66212;SDS011;53015;50.046;8.238;2023-02-28T06:35:34;1.65;;;1.15;;
66212;SDS011;53015;50.046;8.238;2023-02-28T06:38:00;1.60;;;1.30;;
66212;SDS011;53015;50.046;8.238;2023-02-28T06:40:25;1.48;;;1.00;;
66212;SDS011;53015;50.046;8.238;2023-02-28T06:42:52;2.40;;;1.40;;
66212;SDS011;53015;50.046;8.238;2023-02-28T06:45:17;1.30;;;1.20;;
66212;SDS011;53015;50.046;8.238;2023-02-28T06:47:43;3.47;;;1.38;;
66212;SDS011;53015;50.046;8.238;2023-02-28T06:50:09;4.32;;;1.40;;
66212;SDS011;53015;50.046;8.238;2023-02-28T06:52:36;4.75;;;1.80;;
66212;SDS011;53015;50.046;8.238;2023-02-28T06:55:02;1.75;;;1.30;;
66212;SDS011;53015;50.046;8.238;2023-02-28T06:57:29;1.58;;;1.00;;
66212;SDS011;53015;50.046;8.238;2023-02-28T06:59:55;2.78;;;1.25;;
66212;SDS011;53015;50.046;8.238;2023-02-28T07:02:22;1.15;;;1.02;;
66212;SDS011;53015;50.046;8.238;2023-02-28T07:04:47;6.22;;;1.13;;
66212;SDS011;53015;50.046;8.238;2023-02-28T07:07:13;2.05;;;1.25;;
66212;SDS011;53015;50.046;8.238;2023-02-28T07:09:39;3.00;;;1.20;;
66212;SDS011;53015;50.046;8.238;2023-02-28T07:12:04;3.13;;;1.35;;
66212;SDS011;53015;50.046;8.238;2023-02-28T07:14:30;2.83;;;1.30;;
66212;SDS011;53015;50.046;8.238;2023-02-28T07:16:56;3.15;;;1.20;;
66212;SDS011;53015;50.046;8.238;2023-02-28T07:19:22;7.57;;;1.08;;
66212;SDS011;53015;50.046;8.238;2023-02-28T07:21:47;2.95;;;1.30;;
66212;SDS011;53015;50.046;8.238;2023-02-28T07:24:13;1.63;;;1.30;;
66212;SDS011;53015;50.046;8.238;2023-02-28T07:26:38;3.15;;;1.35;;
66212;SDS011;53015;50.046;8.238;2023-02-28T07:29:04;1.48;;;1.10;;
66212;SDS011;53015;50.046;8.238;2023-02-28T07:31:30;3.28;;;1.23;;
66212;SDS011;53015;50.046;8.238;2023-02-28T07:33:56;1.90;;;1.50;;
66212;SDS011;53015;50.046;8.238;2023-02-28T07:36:21;1.60;;;1.00;;
66212;SDS011;53015;50.046;8.238;2023-02-28T07:38:47;3.35;;;1.33;;
66212;SDS011;53015;50.046;8.238;2023-02-28T07:41:13;3.17;;;1.20;;
66212;SDS011;53015;50.046;8.238;2023-02-28T07:43:39;2.38;;;1.50;;
66212;SDS011;53015;50.046;8.238;2023-02-28T07:46:05;2.25;;;1.20;;
66212;SDS011;53015;50.046;8.238;2023-02-28T07:48:32;1.83;;;1.20;;
66212;SDS011;53015;50.046;8.238;2023-02-28T07:50:59;2.30;;;1.23;;
66212;SDS011;53015;50.046;8.238;2023-02-28T07:53:25;3.70;;;1.40;;
66212;SDS011;53015;50.046;8.238;2023-02-28T07:55:51;3.80;;;1.40;;
66212;SDS011;53015;50.046;8.238;2023-02-28T07:58:20;5.75;;;1.30;;
66212;SDS011;53015;50.046;8.238;2023-02-28T08:00:45;2.10;;;1.23;;
66212;SDS011;53015;50.046;8.238;2023-02-28T08:03:11;3.00;;;1.25;;
66212;SDS011;53015;50.046;8.238;2023-02-28T08:05:38;2.15;;;1.38;;
66212;SDS011;53015;50.046;8.238;2023-02-28T08:08:07;1.52;;;1.20;;
66212;SDS011;53015;50.046;8.238;2023-02-28T08:10:33;8.07;;;1.55;;
66212;SDS011;53015;50.046;8.238;2023-02-28T08:12:59;1.55;;;1.23;;
66212;SDS011;53015;50.046;8.238;2023-02-28T08:15:25;2.53;;;1.50;;
66212;SDS011;53015;50.046;8.238;2023-02-28T08:17:50;3.90;;;1.45;;
66212;SDS011;53015;50.046;8.238;2023-02-28T08:20:16;2.30;;;1.33;;
66212;SDS011;53015;50.046;8.238;2023-02-28T08:22:41;2.30;;;1.50;;
66212;SDS011;53015;50.046;8.238;2023-02-28T08:25:08;3.63;;;1.88;;
66212;SDS011;53015;50.046;8.238;2023-02-28T08:27:34;4.20;;;1.60;;
66212;SDS011;53015;50.046;8.238;2023-02-28T08:30:00;2.60;;;1.50;;
66212;SDS011;53015;50.046;8.238;2023-02-28T08:32:25;4.75;;;1.30;;
66212;SDS011;53015;50.046;8.238;2023-02-28T08:34:51;3.58;;;1.58;;
66212;SDS011;53015;50.046;8.238;2023-02-28T08:37:16;2.65;;;1.45;;
66212;SDS011;53015;50.046;8.238;2023-02-28T08:39:42;2.25;;;1.58;;
66212;SDS011;53015;50.046;8.238;2023-02-28T08:42:08;3.75;;;1.27;;
66212;SDS011;53015;50.046;8.238;2023-02-28T08:44:34;2.85;;;1.38;;
66212;SDS011;53015;50.046;8.238;2023-02-28T08:46:59;2.78;;;1.33;;
66212;SDS011;53015;50.046;8.238;2023-02-28T08:49:25;3.05;;;1.50;;
66212;SDS011;53015;50.046;8.238;2023-02-28T08:51:50;2.13;;;1.67;;
66212;SDS011;53015;50.046;8.238;2023-02-28T08:54:16;4.10;;;1.90;;
66212;SDS011;53015;50.046;8.238;2023-02-28T08:56:41;3.15;;;1.55;;
66212;SDS011;53015;50.046;8.238;2023-02-28T08:59:08;3.08;;;1.80;;
66212;SDS011;53015;50.046;8.238;2023-02-28T09:01:34;2.45;;;1.75;;
66212;SDS011;53015;50.046;8.238;2023-02-28T09:04:00;4.57;;;2.10;;
66212;SDS011;53015;50.046;8.238;2023-02-28T09:06:26;5.28;;;1.60;;
66212;SDS011;53015;50.046;8.238;2023-02-28T09:08:52;2.17;;;1.70;;
66212;SDS011;53015;50.046;8.238;2023-02-28T09:11:18;3.00;;;1.63;;
66212;SDS011;53015;50.046;8.238;2023-02-28T09:13:44;7.00;;;2.33;;
66212;SDS011;53015;50.046;8.238;2023-02-28T09:16:12;7.30;;;2.10;;
66212;SDS011;53015;50.046;8.238;2023-02-28T09:18:39;3.60;;;1.88;;
66212;SDS011;53015;50.046;8.238;2023-02-28T09:21:05;3.22;;;1.92;;
66212;SDS011;53015;50.046;8.238;2023-02-28T09:23:31;4.00;;;2.30;;
66212;SDS011;53015;50.046;8.238;2023-02-28T09:25:57;5.53;;;2.40;;
66212;SDS011;53015;50.046;8.238;2023-02-28T09:28:23;2.08;;;1.60;;
66212;SDS011;53015;50.046;8.238;2023-02-28T09:30:49;4.55;;;2.45;;
66212;SDS011;53015;50.046;8.238;2023-02-28T09:33:17;3.72;;;2.05;;
66212;SDS011;53015;50.046;8.238;2023-02-28T09:35:43;4.85;;;1.88;;
66212;SDS011;53015;50.046;8.238;2023-02-28T09:38:09;4.25;;;2.05;;
66212;SDS011;53015;50.046;8.238;2023-02-28T09:40:36;6.68;;;1.63;;
66212;SDS011;53015;50.046;8.238;2023-02-28T09:43:03;3.97;;;1.95;;
66212;SDS011;53015;50.046;8.238;2023-02-28T09:45:31;7.82;;;1.95;;
66212;SDS011;53015;50.046;8.238;2023-02-28T09:48:01;5.40;;;2.28;;
66212;SDS011;53015;50.046;8.238;2023-02-28T09:50:30;2.78;;;1.80;;
66212;SDS011;53015;50.046;8.238;2023-02-28T09:53:01;4.90;;;1.70;;
66212;SDS011;53015;50.046;8.238;2023-02-28T09:55:31;4.00;;;1.77;;
66212;SDS011;53015;50.046;8.238;2023-02-28T09:58:01;3.85;;;2.10;;
66212;SDS011;53015;50.046;8.238;2023-02-28T10:00:29;5.65;;;2.15;;
66212;SDS011;53015;50.046;8.238;2023-02-28T10:03:04;3.40;;;2.13;;
66212;SDS011;53015;50.046;8.238;2023-02-28T10:05:43;3.25;;;1.90;;
66212;SDS011;53015;50.046;8.238;2023-02-28T10:08:16;3.45;;;2.08;;
66212;SDS011;53015;50.046;8.238;2023-02-28T10:10:45;5.63;;;1.75;;
66212;SDS011;53015;50.046;8.238;2023-02-28T10:13:15;2.25;;;1.70;;
66212;SDS011;53015;50.046;8.238;2023-02-28T10:15:45;2.08;;;1.77;;
66212;SDS011;53015;50.046;8.238;2023-02-28T10:18:17;3.08;;;2.20;;
66212;SDS011;53015;50.046;8.238;2023-02-28T10:20:48;3.17;;;2.00;;
66212;SDS011;53015;50.046;8.238;2023-02-28T10:23:17;4.20;;;1.85;;
66212;SDS011;53015;50.046;8.238;2023-02-28T10:25:46;2.83;;;2.10;;
66212;SDS011;53015;50.046;8.238;2023-02-28T10:28:18;2.88;;;2.10;;
66212;SDS011;53015;50.046;8.238;2023-02-28T10:30:44;3.78;;;2.08;;
66212;SDS011;53015;50.046;8.238;2023-02-28T10:33:15;2.75;;;2.00;;
66212;SDS011;53015;50.046;8.238;2023-02-28T10:35:44;3.47;;;1.90;;
66212;SDS011;53015;50.046;8.238;2023-02-28T10:38:14;7.97;;;2.22;;
66212;SDS011;53015;50.046;8.238;2023-02-28T10:40:41;2.78;;;1.92;;
66212;SDS011;53015;50.046;8.238;2023-02-28T10:43:20;2.78;;;2.00;;
66212;SDS011;53015;50.046;8.238;2023-02-28T10:45:56;5.35;;;2.10;;
66212;SDS011;53015;50.046;8.238;2023-02-28T10:48:36;3.45;;;1.80;;
66212;SDS011;53015;50.046;8.238;2023-02-28T10:51:04;6.65;;;2.65;;
66212;SDS011;53015;50.046;8.238;2023-02-28T10:53:34;4.43;;;2.20;;
66212;SDS011;53015;50.046;8.238;2023-02-28T10:56:03;3.85;;;2.20;;
66212;SDS011;53015;50.046;8.238;2023-02-28T10:58:31;6.28;;;2.30;;
66212;SDS011;53015;50.046;8.238;2023-02-28T11:01:08;4.80;;;2.22;;
66212;SDS011;53015;50.046;8.238;2023-02-28T11:03:39;6.45;;;2.20;;
66212;SDS011;53015;50.046;8.238;2023-02-28T11:06:05;4.22;;;2.20;;
66212;SDS011;53015;50.046;8.238;2023-02-28T11:08:34;3.35;;;2.30;;
66212;SDS011;53015;50.046;8.238;2023-02-28T11:11:10;5.32;;;2.35;;
66212;SDS011;53015;50.046;8.238;2023-02-28T11:13:35;7.25;;;3.35;;
66212;SDS011;53015;50.046;8.238;2023-02-28T11:16:02;3.20;;;2.25;;
66212;SDS011;53015;50.046;8.238;2023-02-28T11:18:39;2.95;;;2.22;;
66212;SDS011;53015;50.046;8.238;2023-02-28T11:21:07;4.90;;;2.30;;
66212;SDS011;53015;50.046;8.238;2023-02-28T11:23:35;5.38;;;2.55;;
66212;SDS011;53015;50.046;8.238;2023-02-28T11:26:05;5.15;;;2.60;;
66212;SDS011;53015;50.046;8.238;2023-02-28T11:28:31;3.65;;;2.55;;
66212;SDS011;53015;50.046;8.238;2023-02-28T11:31:03;9.25;;;3.13;;
66212;SDS011;53015;50.046;8.238;2023-02-28T11:33:31;4.07;;;2.53;;
66212;SDS011;53015;50.046;8.238;2023-02-28T11:38:35;3.70;;;2.17;;
66212;SDS011;53015;50.046;8.238;2023-02-28T11:41:05;4.05;;;2.50;;
66212;SDS011;53015;50.046;8.238;2023-02-28T11:43:53;4.13;;;2.70;;
66212;SDS011;53015;50.046;8.238;2023-02-28T11:46:31;3.88;;;2.40;;
66212;SDS011;53015;50.046;8.238;2023-02-28T11:49:05;4.03;;;2.78;;
66212;SDS011;53015;50.046;8.238;2023-02-28T11:51:47;4.43;;;2.85;;
66212;SDS011;53015;50.046;8.238;2023-02-28T11:54:21;4.70;;;2.65;;
66212;SDS011;53015;50.046;8.238;2023-02-28T11:56:54;4.65;;;2.50;;
66212;SDS011;53015;50.046;8.238;2023-02-28T11:59:34;4.20;;;2.55;;
66212;SDS011;53015;50.046;8.238;2023-02-28T12:02:17;4.35;;;2.58;;
66212;SDS011;53015;50.046;8.238;2023-02-28T12:04:52;5.93;;;2.55;;
66212;SDS011;53015;50.046;8.238;2023-02-28T12:07:28;5.35;;;2.72;;
66212;SDS011;53015;50.046;8.238;2023-02-28T12:10:00;3.35;;;2.33;;
66212;SDS011;53015;50.046;8.238;2023-02-28T12:12:36;4.13;;;2.35;;
66212;SDS011;53015;50.046;8.238;2023-02-28T12:17:56;3.75;;;2.42;;
66212;SDS011;53015;50.046;8.238;2023-02-28T12:20:33;4.53;;;2.42;;
66212;SDS011;53015;50.046;8.238;2023-02-28T12:23:09;4.38;;;2.65;;
66212;SDS011;53015;50.046;8.238;2023-02-28T12:25:49;4.30;;;2.58;;
66212;SDS011;53015;50.046;8.238;2023-02-28T12:28:21;4.53;;;2.60;;
66212;SDS011;53015;50.046;8.238;2023-02-28T12:30:51;5.57;;;2.72;;
66212;SDS011;53015;50.046;8.238;2023-02-28T12:33:24;5.93;;;2.72;;
66212;SDS011;53015;50.046;8.238;2023-02-28T12:35:56;4.65;;;2.85;;
66212;SDS011;53015;50.046;8.238;2023-02-28T12:38:23;3.30;;;2.25;;
66212;SDS011;53015;50.046;8.238;2023-02-28T12:40:53;6.35;;;2.85;;
66212;SDS011;53015;50.046;8.238;2023-02-28T12:43:22;6.45;;;2.72;;
66212;SDS011;53015;50.046;8.238;2023-02-28T12:45:53;4.03;;;2.60;;
66212;SDS011;53015;50.046;8.238;2023-02-28T12:48:24;3.22;;;2.42;;
66212;SDS011;53015;50.046;8.238;2023-02-28T12:50:54;4.53;;;2.65;;
66212;SDS011;53015;50.046;8.238;2023-02-28T12:53:22;3.88;;;2.80;;
66212;SDS011;53015;50.046;8.238;2023-02-28T12:55:56;5.20;;;3.17;;
66212;SDS011;53015;50.046;8.238;2023-02-28T12:58:31;7.13;;;2.60;;
66212;SDS011;53015;50.046;8.238;2023-02-28T13:01:06;7.20;;;2.80;;
66212;SDS011;53015;50.046;8.238;2023-02-28T13:03:54;7.53;;;2.85;;
66212;SDS011;53015;50.046;8.238;2023-02-28T13:06:37;3.33;;;2.80;;
66212;SDS011;53015;50.046;8.238;2023-02-28T13:09:10;4.93;;;2.95;;
66212;SDS011;53015;50.046;8.238;2023-02-28T13:11:39;7.25;;;2.90;;
66212;SDS011;53015;50.046;8.238;2023-02-28T13:14:16;4.18;;;2.90;;
66212;SDS011;53015;50.046;8.238;2023-02-28T13:16:48;5.50;;;3.25;;
66212;SDS011;53015;50.046;8.238;2023-02-28T13:19:22;5.35;;;3.08;;
66212;SDS011;53015;50.046;8.238;2023-02-28T13:21:50;5.18;;;3.78;;
66212;SDS011;53015;50.046;8.238;2023-02-28T13:36:01;6.40;;;3.05;;
66212;SDS011;53015;50.046;8.238;2023-02-28T13:38:34;6.00;;;2.83;;
66212;SDS011;53015;50.046;8.238;2023-02-28T13:44:20;6.25;;;3.13;;
66212;SDS011;53015;50.046;8.238;2023-02-28T13:49:53;4.38;;;2.95;;
66212;SDS011;53015;50.046;8.238;2023-02-28T13:52:20;5.72;;;2.70;;
66212;SDS011;53015;50.046;8.238;2023-02-28T13:54:59;4.78;;;3.33;;
66212;SDS011;53015;50.046;8.238;2023-02-28T13:57:48;4.35;;;2.97;;
66212;SDS011;53015;50.046;8.238;2023-02-28T14:00:28;5.53;;;3.20;;
66212;SDS011;53015;50.046;8.238;2023-02-28T14:06:07;3.78;;;2.80;;
66212;SDS011;53015;50.046;8.238;2023-02-28T14:08:42;6.28;;;2.80;;
66212;SDS011;53015;50.046;8.238;2023-02-28T14:11:23;6.78;;;3.40;;
66212;SDS011;53015;50.046;8.238;2023-02-28T14:13:51;5.22;;;3.20;;
66212;SDS011;53015;50.046;8.238;2023-02-28T14:16:19;6.43;;;2.95;;
66212;SDS011;53015;50.046;8.238;2023-02-28T14:18:48;5.60;;;2.90;;
66212;SDS011;53015;50.046;8.238;2023-02-28T14:21:20;7.15;;;2.85;;
66212;SDS011;53015;50.046;8.238;2023-02-28T14:23:52;4.43;;;3.00;;
66212;SDS011;53015;50.046;8.238;2023-02-28T14:26:34;4.07;;;2.50;;
66212;SDS011;53015;50.046;8.238;2023-02-28T14:29:21;3.80;;;2.65;;
66212;SDS011;53015;50.046;8.238;2023-02-28T14:32:01;4.93;;;3.40;;
66212;SDS011;53015;50.046;8.238;2023-02-28T14:34:35;5.85;;;2.60;;
66212;SDS011;53015;50.046;8.238;2023-02-28T14:37:08;5.93;;;2.90;;
66212;SDS011;53015;50.046;8.238;2023-02-28T14:39:40;3.83;;;2.70;;
66212;SDS011;53015;50.046;8.238;2023-02-28T14:44:53;7.13;;;3.20;;
66212;SDS011;53015;50.046;8.238;2023-02-28T14:47:22;4.95;;;2.70;;
66212;SDS011;53015;50.046;8.238;2023-02-28T14:49:50;5.78;;;3.40;;
66212;SDS011;53015;50.046;8.238;2023-02-28T14:52:17;4.88;;;3.38;;
66212;SDS011;53015;50.046;8.238;2023-02-28T14:54:45;4.93;;;2.70;;
66212;SDS011;53015;50.046;8.238;2023-02-28T14:57:20;4.90;;;2.80;;
66212;SDS011;53015;50.046;8.238;2023-02-28T14:59:56;5.15;;;3.17;;
66212;SDS011;53015;50.046;8.238;2023-02-28T15:02:23;3.75;;;2.92;;
66212;SDS011;53015;50.046;8.238;2023-02-28T15:04:53;5.25;;;3.20;;
66212;SDS011;53015;50.046;8.238;2023-02-28T15:07:20;4.55;;;3.00;;
66212;SDS011;53015;50.046;8.238;2023-02-28T15:09:45;5.88;;;3.50;;
66212;SDS011;53015;50.046;8.238;2023-02-28T15:12:12;6.20;;;3.10;;
66212;SDS011;53015;50.046;8.238;2023-02-28T15:14:39;6.28;;;3.30;;
66212;SDS011;53015;50.046;8.238;2023-02-28T15:17:08;4.45;;;3.00;;
66212;SDS011;53015;50.046;8.238;2023-02-28T15:22:11;7.22;;;3.25;;
66212;SDS011;53015;50.046;8.238;2023-02-28T15:24:40;5.53;;;3.05;;
66212;SDS011;53015;50.046;8.238;2023-02-28T15:27:11;6.93;;;3.53;;
66212;SDS011;53015;50.046;8.238;2023-02-28T15:29:44;8.68;;;3.35;;
66212;SDS011;53015;50.046;8.238;2023-02-28T15:32:21;4.80;;;2.88;;
66212;SDS011;53015;50.046;8.238;2023-02-28T15:34:50;5.28;;;2.85;;
66212;SDS011;53015;50.046;8.238;2023-02-28T15:37:30;5.20;;;2.90;;
66212;SDS011;53015;50.046;8.238;2023-02-28T15:45:41;6.78;;;2.88;;